createdAt,value
2019-04-07T00:02:22.433Z,38.97
2019-04-07T00:04:53.461Z,48.10
2019-04-07T00:07:24.173Z,42.03
2019-04-07T00:09:54.611Z,42.87
2019-04-07T00:12:25.388Z,36.27
2019-04-07T00:14:58.356Z,34.33
2019-04-07T00:17:31.160Z,34.17
2019-04-07T00:20:01.578Z,37.20
2019-04-07T00:22:32.384Z,33.53
2019-04-07T00:25:02.796Z,38.77
2019-04-07T00:27:33.395Z,42.83
2019-04-07T00:30:04.068Z,39.07
2019-04-07T00:32:35.038Z,43.77
2019-04-07T00:35:05.761Z,37.00
2019-04-07T00:37:36.327Z,44.53
2019-04-07T00:40:08.627Z,39.70
2019-04-07T00:42:39.137Z,34.93
2019-04-07T00:45:09.777Z,36.80
2019-04-07T00:47:40.304Z,32.57
2019-04-07T00:50:10.704Z,34.40
2019-04-07T00:52:41.105Z,41.17
2019-04-07T00:55:11.660Z,34.67
2019-04-07T00:57:42.038Z,40.17
2019-04-07T01:00:13.555Z,32.13
2019-04-07T01:02:44.118Z,32.93
2019-04-07T01:05:14.795Z,37.73
2019-04-07T01:07:46.371Z,35.33
2019-04-07T01:10:17.438Z,33.53
2019-04-07T01:12:50.242Z,58.83
2019-04-07T01:15:20.752Z,37.47
2019-04-07T01:17:51.435Z,47.57
2019-04-07T01:20:22.729Z,39.97
2019-04-07T01:22:53.147Z,33.93
2019-04-07T01:25:24.167Z,32.33
2019-04-07T01:27:54.741Z,40.13
2019-04-07T01:30:25.190Z,33.70
2019-04-07T01:32:56.366Z,35.53
2019-04-07T01:35:26.827Z,31.93
2019-04-07T01:37:57.151Z,30.47
2019-04-07T01:40:27.523Z,37.83
2019-04-07T01:43:20.255Z,33.47
2019-04-07T01:46:07.456Z,36.47
2019-04-07T01:48:49.200Z,32.27
2019-04-07T01:51:44.586Z,30.67
2019-04-07T01:54:34.325Z,32.20
2019-04-07T01:57:36.419Z,37.97
2019-04-07T02:00:41.571Z,38.70
2019-04-07T02:03:29.880Z,34.80
2019-04-07T02:06:28.605Z,33.87
2019-04-07T02:09:03.358Z,32.73
2019-04-07T02:11:59.411Z,41.20
2019-04-07T02:14:48.850Z,36.77
2019-04-07T02:17:38.173Z,32.33
2019-04-07T02:20:16.711Z,34.47
2019-04-07T02:22:54.714Z,38.97
2019-04-07T02:25:41.668Z,36.90
2019-04-07T02:28:40.711Z,36.97
2019-04-07T02:31:29.633Z,34.63
2019-04-07T02:34:14.131Z,39.60
2019-04-07T02:37:03.234Z,35.67
2019-04-07T02:39:44.385Z,31.17
2019-04-07T02:42:23.999Z,36.70
2019-04-07T02:45:09.167Z,35.40
2019-04-07T02:47:58.456Z,37.57
2019-04-07T02:50:50.898Z,33.87
2019-04-07T02:53:31.485Z,33.27
2019-04-07T02:56:29.852Z,39.93
2019-04-07T02:59:25.527Z,32.70
2019-04-07T03:02:21.087Z,31.50
2019-04-07T03:05:10.203Z,38.33
2019-04-07T03:08:05.886Z,30.97
2019-04-07T03:10:54.240Z,33.03
2019-04-07T03:13:43.366Z,36.60
2019-04-07T03:16:24.470Z,35.50
2019-04-07T03:19:09.562Z,38.30
2019-04-07T03:22:03.828Z,35.20
2019-04-07T03:24:46.848Z,34.90
2019-04-07T03:27:36.080Z,38.97
2019-04-07T03:30:33.104Z,36.30
2019-04-07T03:33:15.404Z,33.40
2019-04-07T03:35:52.967Z,34.07
2019-04-07T03:38:33.332Z,39.77
2019-04-07T03:41:13.683Z,38.73
2019-04-07T03:44:12.854Z,39.53
2019-04-07T03:46:49.347Z,43.87
2019-04-07T03:49:45.673Z,35.83
2019-04-07T03:52:35.366Z,40.70
2019-04-07T03:55:15.756Z,36.73
2019-04-07T03:57:59.998Z,35.10
2019-04-07T04:01:25.943Z,35.10
2019-04-07T04:04:30.728Z,37.83
2019-04-07T04:07:31.454Z,43.27
2019-04-07T04:10:09.808Z,39.20
2019-04-07T04:12:45.692Z,40.33
2019-04-07T04:15:22.735Z,38.23
2019-04-07T04:17:55.248Z,42.57
2019-04-07T04:20:25.699Z,36.03
2019-04-07T04:22:56.051Z,36.63
2019-04-07T04:25:27.429Z,41.27
2019-04-07T04:27:58.908Z,45.53
2019-04-07T04:30:29.916Z,44.53
2019-04-07T04:33:00.452Z,37.80
2019-04-07T04:35:30.826Z,33.13
2019-04-07T04:38:01.874Z,34.23
2019-04-07T04:40:32.503Z,34.47
2019-04-07T04:43:05.024Z,33.83
2019-04-07T04:45:36.270Z,37.93
2019-04-07T04:48:06.867Z,38.37
2019-04-07T04:50:37.441Z,35.83
2019-04-07T04:53:09.248Z,37.40
2019-04-07T04:55:42.257Z,41.87
2019-04-07T04:58:12.720Z,35.93
2019-04-07T05:00:52.637Z,37.30
2019-04-07T05:03:22.964Z,34.50
2019-04-07T05:05:54.542Z,38.70
2019-04-07T05:08:25.831Z,32.90
2019-04-07T05:10:56.536Z,36.67
2019-04-07T05:13:27.265Z,30.30
2019-04-07T05:15:57.728Z,42.57
2019-04-07T05:18:30.624Z,37.93
2019-04-07T05:21:01.124Z,36.23
2019-04-07T05:23:33.418Z,38.27
2019-04-07T05:26:03.768Z,33.87
2019-04-07T05:28:36.932Z,36.20
2019-04-07T05:31:07.249Z,41.20
2019-04-07T05:33:37.756Z,36.67
2019-04-07T05:36:08.849Z,37.17
2019-04-07T05:38:39.518Z,34.23
2019-04-07T05:41:09.959Z,42.17
2019-04-07T05:43:40.565Z,42.53
2019-04-07T05:46:11.038Z,41.37
2019-04-07T05:48:42.133Z,39.03
2019-04-07T05:51:12.449Z,43.67
2019-04-07T05:53:46.429Z,46.73
2019-04-07T05:56:14.940Z,51.80
2019-04-07T05:58:45.279Z,44.47
2019-04-07T06:01:19.014Z,46.40
2019-04-07T06:03:47.955Z,49.33
2019-04-07T06:06:20.196Z,45.73
2019-04-07T06:08:50.770Z,44.57
2019-04-07T06:11:21.642Z,48.00
2019-04-07T06:13:52.887Z,46.33
2019-04-07T06:16:24.668Z,47.33
2019-04-07T06:18:55.514Z,52.63
2019-04-07T06:21:26.216Z,47.13
2019-04-07T06:23:59.843Z,44.00
2019-04-07T06:26:28.861Z,51.23
2019-04-07T06:28:59.827Z,50.70
2019-04-07T06:31:32.145Z,49.53
2019-04-07T06:34:02.269Z,50.17
2019-04-07T06:36:32.860Z,52.80
2019-04-07T06:39:05.722Z,44.00
2019-04-07T06:41:37.770Z,46.70
2019-04-07T06:44:16.561Z,53.13
2019-04-07T06:47:03.473Z,49.43
2019-04-07T06:49:44.716Z,48.40
2019-04-07T06:52:19.331Z,54.13
2019-04-07T06:55:24.621Z,54.03
2019-04-07T06:58:11.163Z,48.30
2019-04-07T07:00:54.951Z,52.37
2019-04-07T07:03:46.439Z,44.43
2019-04-07T07:06:35.982Z,47.77
2019-04-07T07:09:27.704Z,48.90
2019-04-07T07:12:30.825Z,45.67
2019-04-07T07:15:33.104Z,42.20
2019-04-07T07:18:27.262Z,47.47
2019-04-07T07:21:09.993Z,42.20
2019-04-07T07:23:47.056Z,44.17
2019-04-07T07:26:14.574Z,45.37
2019-04-07T07:28:45.797Z,50.50
2019-04-07T07:31:16.679Z,43.13
2019-04-07T07:33:47.399Z,49.90
2019-04-07T07:36:20.629Z,46.53
2019-04-07T07:38:59.566Z,48.17
2019-04-07T07:41:23.303Z,51.13
2019-04-07T07:43:54.833Z,47.40
2019-04-07T07:46:25.357Z,49.13
2019-04-07T07:48:59.003Z,50.63
2019-04-07T07:51:27.857Z,51.10
2019-04-07T07:54:00.536Z,47.47
2019-04-07T07:56:31.281Z,53.83
2019-04-07T07:59:02.585Z,52.80
2019-04-07T08:01:33.246Z,49.20
2019-04-07T08:04:03.714Z,51.47
2019-04-07T08:06:38.498Z,52.60
2019-04-07T08:09:13.669Z,50.03
2019-04-07T08:11:40.780Z,47.80
2019-04-07T08:14:15.121Z,52.93
2019-04-07T08:16:43.596Z,50.03
2019-04-07T08:19:14.022Z,42.60
2019-04-07T08:21:45.492Z,48.30
2019-04-07T08:24:18.588Z,53.23
2019-04-07T08:26:48.869Z,46.10
2019-04-07T08:29:21.422Z,48.97
2019-04-07T08:31:55.195Z,43.87
2019-04-07T08:34:24.426Z,41.97
2019-04-07T08:36:54.756Z,37.50
2019-04-07T08:39:29.083Z,40.20
2019-04-07T08:41:57.329Z,48.73
2019-04-07T08:44:29.681Z,36.40
2019-04-07T08:46:59.867Z,31.93
2019-04-07T08:49:32.697Z,32.37
2019-04-07T08:52:07.293Z,33.73
2019-04-07T08:54:34.397Z,27.50
2019-04-07T08:57:05.762Z,31.73
2019-04-07T08:59:40.536Z,25.27
2019-04-07T09:02:11.467Z,25.03
2019-04-07T09:04:44.284Z,24.77
2019-04-07T09:07:15.456Z,22.20
2019-04-07T09:09:48.470Z,26.17
2019-04-07T09:12:18.065Z,23.43
2019-04-07T09:14:49.221Z,24.73
2019-04-07T09:17:43.510Z,21.00
2019-04-07T09:20:40.906Z,19.83
2019-04-07T09:23:28.334Z,19.07
2019-04-07T09:26:19.925Z,23.17
2019-04-07T09:29:12.825Z,20.40
2019-04-07T09:31:54.801Z,22.07
2019-04-07T09:34:38.746Z,17.62
2019-04-07T09:37:43.344Z,19.10
2019-04-07T09:40:20.144Z,21.97
2019-04-07T09:43:22.434Z,19.90
2019-04-07T09:46:13.633Z,17.87
2019-04-07T09:49:10.910Z,15.68
2019-04-07T09:52:00.974Z,15.72
2019-04-07T09:55:01.047Z,14.43
2019-04-07T10:01:08.122Z,15.38
2019-04-07T10:04:07.804Z,17.90
2019-04-07T10:06:56.332Z,11.68
2019-04-07T10:10:03.639Z,11.38
2019-04-07T10:12:40.517Z,11.20
2019-04-07T10:15:39.603Z,10.30
2019-04-07T10:18:50.917Z,7.85
2019-04-07T10:21:42.974Z,8.60
2019-04-07T10:24:48.279Z,15.88
2019-04-07T10:27:36.830Z,9.70
2019-04-07T10:30:17.337Z,10.70
2019-04-07T10:33:13.324Z,13.13
2019-04-07T10:35:59.532Z,8.13
2019-04-07T10:39:07.396Z,7.00
2019-04-07T10:42:15.979Z,7.25
2019-04-07T10:45:05.880Z,6.05
2019-04-07T10:47:55.101Z,7.72
2019-04-07T10:53:41.529Z,7.35
2019-04-07T10:56:49.870Z,13.15
2019-04-07T10:59:49.411Z,7.22
2019-04-07T11:02:40.302Z,6.47
2019-04-07T11:05:28.426Z,7.35
2019-04-07T11:08:18.275Z,7.33
2019-04-07T11:11:06.647Z,12.53
2019-04-07T11:13:50.001Z,5.92
2019-04-07T11:16:52.418Z,5.22
2019-04-07T11:19:44.636Z,7.22
2019-04-07T11:22:36.716Z,5.35
2019-04-07T11:25:27.248Z,7.55
2019-04-07T11:28:13.324Z,5.72
2019-04-07T11:31:05.814Z,7.42
2019-04-07T11:33:42.155Z,6.10
2019-04-07T11:36:24.488Z,4.85
2019-04-07T11:39:13.513Z,10.98
2019-04-07T11:42:04.787Z,5.05
2019-04-07T11:44:53.098Z,7.12
2019-04-07T11:47:42.761Z,4.85
2019-04-07T11:50:27.973Z,5.33
2019-04-07T11:53:05.307Z,4.50
2019-04-07T11:55:54.631Z,4.15
2019-04-07T11:58:34.459Z,4.92
2019-04-07T12:01:30.350Z,6.05
2019-04-07T12:04:29.516Z,3.65
2019-04-07T12:07:25.128Z,3.52
2019-04-07T12:10:21.396Z,3.80
2019-04-07T12:13:09.075Z,3.52
2019-04-07T12:15:59.293Z,6.62
2019-04-07T12:18:55.559Z,3.42
2019-04-07T12:21:45.050Z,3.42
2019-04-07T12:24:41.269Z,3.15
2019-04-07T12:27:30.273Z,3.47
2019-04-07T12:30:22.511Z,2.95
2019-04-07T12:33:18.002Z,3.87
2019-04-07T12:36:44.823Z,16.45
2019-04-07T12:39:34.963Z,3.75
2019-04-07T12:42:33.296Z,4.20
2019-04-07T12:45:22.311Z,4.10
2019-04-07T12:51:12.221Z,2.45
2019-04-07T12:53:53.335Z,3.00
2019-04-07T13:00:24.156Z,4.97
2019-04-07T13:02:58.528Z,2.95
2019-04-07T13:05:46.696Z,5.15
2019-04-07T13:08:36.313Z,10.43
2019-04-07T13:11:25.438Z,4.25
2019-04-07T13:14:16.645Z,2.62
2019-04-07T13:17:09.018Z,2.65
2019-04-07T13:20:02.303Z,4.65
2019-04-07T13:25:25.115Z,3.85
2019-04-07T13:28:15.216Z,3.80
2019-04-07T13:31:04.954Z,3.67
2019-04-07T13:33:53.334Z,6.10
2019-04-07T13:36:34.811Z,13.22
2019-04-07T13:39:26.300Z,10.28
2019-04-07T13:42:16.397Z,4.55
2019-04-07T13:44:58.536Z,6.40
2019-04-07T13:47:58.455Z,4.17
2019-04-07T13:50:40.586Z,4.10
2019-04-07T13:53:36.711Z,8.75
2019-04-07T13:56:47.993Z,4.65
2019-04-07T13:59:45.326Z,3.87
2019-04-07T14:02:30.179Z,13.00
2019-04-07T14:05:15.257Z,4.10
2019-04-07T14:08:04.206Z,5.08
2019-04-07T14:10:59.334Z,5.27
2019-04-07T14:14:05.729Z,5.40
2019-04-07T14:17:08.561Z,4.62
2019-04-07T14:19:57.723Z,6.57
2019-04-07T14:22:46.585Z,4.53
2019-04-07T14:25:35.642Z,4.78
2019-04-07T14:28:19.003Z,4.55
2019-04-07T14:31:12.858Z,4.30
2019-04-07T14:34:07.466Z,4.22
2019-04-07T14:37:03.215Z,4.30
2019-04-07T14:39:43.420Z,8.25
2019-04-07T14:42:39.486Z,4.75
2019-04-07T14:45:29.473Z,6.20
2019-04-07T14:48:34.776Z,12.95
2019-04-07T14:51:24.073Z,4.28
2019-04-07T14:54:22.798Z,4.95
2019-04-07T14:57:12.803Z,4.92
2019-04-07T14:59:57.846Z,41.80
2019-04-07T15:02:29.102Z,4.30
2019-04-07T15:05:04.201Z,4.70
2019-04-07T15:07:46.268Z,5.92
2019-04-07T15:10:24.521Z,4.72
2019-04-07T15:12:58.102Z,7.35
2019-04-07T15:15:31.412Z,7.70
2019-04-07T15:18:01.773Z,4.45
2019-04-07T15:20:32.316Z,4.45
2019-04-07T15:23:05.534Z,6.40
2019-04-07T15:25:40.104Z,5.85
2019-04-07T15:28:09.006Z,5.22
2019-04-07T15:30:39.640Z,5.05
2019-04-07T15:36:09.264Z,9.95
2019-04-07T15:38:41.716Z,5.15
2019-04-07T15:41:15.624Z,7.92
2019-04-07T15:43:45.303Z,6.10
2019-04-07T15:46:18.056Z,18.37
2019-04-07T15:48:48.431Z,8.40
2019-04-07T15:51:20.536Z,7.80
2019-04-07T15:53:52.058Z,9.60
2019-04-07T15:56:23.962Z,6.35
2019-04-07T15:59:04.871Z,7.03
2019-04-07T16:01:38.009Z,7.00
2019-04-07T16:04:07.421Z,14.50
2019-04-07T16:06:38.708Z,7.30
2019-04-07T16:09:16.692Z,9.98
2019-04-07T16:11:42.360Z,8.27
2019-04-07T16:14:14.642Z,14.70
2019-04-07T16:16:45.127Z,9.20
2019-04-07T16:19:19.814Z,7.57
2019-04-07T16:21:48.254Z,8.67
2019-04-07T16:24:20.893Z,9.17
2019-04-07T16:26:51.458Z,8.90
2019-04-07T16:29:23.522Z,8.60
2019-04-07T16:31:57.003Z,11.10
2019-04-07T16:34:26.335Z,8.37
2019-04-07T16:36:59.367Z,7.10
2019-04-07T16:39:32.404Z,11.50
2019-04-07T16:42:01.007Z,7.77
2019-04-07T16:44:31.872Z,9.03
2019-04-07T16:47:04.007Z,9.83
2019-04-07T16:49:34.130Z,8.75
2019-04-07T16:52:05.928Z,8.83
2019-04-07T16:54:43.458Z,7.20
2019-04-07T16:57:12.981Z,8.00
2019-04-07T16:59:43.613Z,13.57
2019-04-07T17:02:17.610Z,9.63
2019-04-07T17:04:46.909Z,11.73
2019-04-07T17:07:21.060Z,10.00
2019-04-07T17:09:54.944Z,13.17
2019-04-07T17:12:23.897Z,10.27
2019-04-07T17:14:54.385Z,13.63
2019-04-07T17:17:31.426Z,11.63
2019-04-07T17:20:03.621Z,12.07
2019-04-07T17:23:02.057Z,15.47
2019-04-07T17:25:38.056Z,12.83
2019-04-07T17:28:13.567Z,12.33
2019-04-07T17:31:05.871Z,10.77
2019-04-07T17:33:37.923Z,14.27
2019-04-07T17:36:09.000Z,12.77
2019-04-07T17:38:45.320Z,13.63
2019-04-07T17:41:21.439Z,12.73
2019-04-07T17:44:04.481Z,10.67
2019-04-07T17:46:49.190Z,12.33
2019-04-07T17:49:50.451Z,13.00
2019-04-07T17:52:40.891Z,12.77
2019-04-07T17:55:30.822Z,12.47
2019-04-07T17:58:16.022Z,11.57
2019-04-07T18:01:04.653Z,12.87
2019-04-07T18:03:57.079Z,12.87
2019-04-07T18:06:40.361Z,16.13
2019-04-07T18:09:29.873Z,14.07
2019-04-07T18:12:19.833Z,12.93
2019-04-07T18:15:06.402Z,12.50
2019-04-07T18:17:56.077Z,12.80
2019-04-07T18:20:47.433Z,12.30
2019-04-07T18:23:39.825Z,13.97
2019-04-07T18:26:25.143Z,13.13
2019-04-07T18:29:13.655Z,14.37
2019-04-07T18:32:00.130Z,13.43
2019-04-07T18:34:49.663Z,14.50
2019-04-07T18:37:42.262Z,12.10
2019-04-07T18:40:27.303Z,17.57
2019-04-07T18:43:15.695Z,14.97
2019-04-07T18:46:07.303Z,14.93
2019-04-07T18:48:53.359Z,13.13
2019-04-07T18:51:47.079Z,14.77
2019-04-07T18:54:36.716Z,15.17
2019-04-07T18:57:36.042Z,14.43
2019-04-07T19:00:24.594Z,14.10
2019-04-07T19:03:02.452Z,11.37
2019-04-07T19:05:43.676Z,14.83
2019-04-07T19:08:32.748Z,12.00
2019-04-07T19:11:14.863Z,14.33
2019-04-07T19:14:30.675Z,10.83
2019-04-07T19:16:50.909Z,14.83
2019-04-07T19:19:39.738Z,13.63
2019-04-07T19:22:21.252Z,16.77
2019-04-07T19:25:33.595Z,11.50
2019-04-07T19:28:38.309Z,12.20
2019-04-07T19:31:30.691Z,11.70
2019-04-07T19:34:20.532Z,13.47
2019-04-07T19:37:10.272Z,12.33
2019-04-07T19:40:02.482Z,13.60
2019-04-07T19:42:56.354Z,12.33
2019-04-07T19:46:04.851Z,12.37
2019-04-07T19:48:57.445Z,13.50
2019-04-07T19:51:48.538Z,13.97
2019-04-07T19:54:29.966Z,12.43
2019-04-07T19:57:18.158Z,14.37
2019-04-07T20:00:22.195Z,16.00
2019-04-07T20:03:09.659Z,13.37
2019-04-07T20:05:50.883Z,16.43
2019-04-07T20:08:43.791Z,14.50
2019-04-07T20:11:37.078Z,14.50
2019-04-07T20:14:18.336Z,16.17
2019-04-07T20:17:16.530Z,16.57
2019-04-07T20:19:55.649Z,15.73
2019-04-07T20:23:04.409Z,17.53
2019-04-07T20:25:44.849Z,19.77
2019-04-07T20:28:21.013Z,17.63
2019-04-07T20:31:28.463Z,17.53
2019-04-07T20:34:21.083Z,17.80
2019-04-07T20:37:07.220Z,15.97
2019-04-07T20:40:17.456Z,17.10
2019-04-07T20:42:54.613Z,17.90
2019-04-07T20:45:53.840Z,17.20
2019-04-07T20:48:37.277Z,19.03
2019-04-07T20:51:30.601Z,17.70
2019-04-07T20:54:17.399Z,18.67
2019-04-07T20:57:16.366Z,18.43
2019-04-07T21:00:02.351Z,16.00
2019-04-07T21:02:43.291Z,21.50
2019-04-07T21:05:35.781Z,18.87
2019-04-07T21:08:25.924Z,23.27
2019-04-07T21:11:08.072Z,22.63
2019-04-07T21:13:56.471Z,16.00
2019-04-07T21:17:01.621Z,17.90
2019-04-07T21:19:50.851Z,16.57
2019-04-07T21:22:55.934Z,15.93
2019-04-07T21:25:41.324Z,16.20
2019-04-07T21:28:24.608Z,18.47
2019-04-07T21:31:17.286Z,14.23
2019-04-07T21:33:57.524Z,15.80
2019-04-07T21:36:40.529Z,15.43
2019-04-07T21:39:25.893Z,16.43
2019-04-07T21:42:16.217Z,14.17
2019-04-07T21:45:07.322Z,15.27
2019-04-07T21:47:46.822Z,18.63
2019-04-07T21:50:40.023Z,15.77
2019-04-07T21:53:29.169Z,15.20
2019-04-07T21:56:11.411Z,14.40
2019-04-07T21:58:57.881Z,15.50
2019-04-07T22:01:37.786Z,15.73
2019-04-07T22:04:30.214Z,15.93
2019-04-07T22:07:27.642Z,16.17
2019-04-07T22:10:00.687Z,17.93
2019-04-07T22:12:33.010Z,16.20
2019-04-07T22:15:05.034Z,19.17
2019-04-07T22:17:37.169Z,20.10
2019-04-07T22:20:08.463Z,15.60
2019-04-07T22:22:38.956Z,16.87
2019-04-07T22:25:11.485Z,13.93
2019-04-07T22:27:41.900Z,16.07
2019-04-07T22:30:14.383Z,15.60
2019-04-07T22:32:44.936Z,14.03
2019-04-07T22:35:15.463Z,16.47
2019-04-07T22:37:48.295Z,14.03
2019-04-07T22:40:21.405Z,16.43
2019-04-07T22:42:51.827Z,15.77
2019-04-07T22:45:27.780Z,18.10
2019-04-07T22:47:55.086Z,15.30
2019-04-07T22:50:25.539Z,11.90
2019-04-07T22:52:55.932Z,9.50
2019-04-07T22:55:27.027Z,10.13
2019-04-07T22:57:57.859Z,8.27
2019-04-07T23:00:28.762Z,6.73
2019-04-07T23:02:59.471Z,6.03
2019-04-07T23:05:29.984Z,6.83
2019-04-07T23:08:00.274Z,6.40
2019-04-07T23:10:31.564Z,5.77
2019-04-07T23:13:02.044Z,4.87
2019-04-07T23:15:41.568Z,5.33
2019-04-07T23:18:05.430Z,7.00
2019-04-07T23:20:35.912Z,5.23
2019-04-07T23:23:06.817Z,5.30
2019-04-07T23:25:37.188Z,5.03
2019-04-07T23:28:08.210Z,5.73
2019-04-07T23:30:38.541Z,4.07
2019-04-07T23:33:08.856Z,4.20
2019-04-07T23:35:39.341Z,4.73
2019-04-07T23:38:09.761Z,4.43
2019-04-07T23:40:40.193Z,5.80
2019-04-07T23:43:11.155Z,8.13
2019-04-07T23:45:41.983Z,7.07
2019-04-07T23:48:12.691Z,11.87
2019-04-07T23:50:44.414Z,8.53
2019-04-07T23:53:50.824Z,6.67
2019-04-07T23:56:21.223Z,10.93
2019-04-07T23:58:52.041Z,9.53
